• Profile picture of Drone Academy

    Drone Academy posted an update 6 months ago

    Time for your weekly Part 107 #popquiz

    KAFW 182309Z 22013KT 10SM FEW030 BKN210 BKN280 22/12 A2962 RMK AO2 VIRGA T02170122 $

    Based on the METAR above, what is the current temperature-dew point spread?

    A. 10°F
    B. 2°C
    C. 10°C
    D. 12°C

    • Yo, why can’t I view my course material in order to keep on studying?

      • Hey Bryce! You might have noticed that we made some pretty significant updates to the site! You can now access your courses by clicking on your profile pic (in the top right corner) and selecting ‘my courses.’

This website uses cookies to ensure you get the best experience on our website. By continuing to browse on this website, you accept the use of cookies for the above purposes.

let's Fly together

Subscribe to Our Newsletter